Time;durP1;ratioP1;P1;durP2;ratioP2;P2;SDS_P1;SDS_P2;PMS_P1;PMS_P2;Temp;Humidity;BMP_temperature;BMP_pressure;BME280_temperature;BME280_humidity;BME280_pressure;Samples;Min_cycle;Max_cycle;Signal;HPM_P1;HPM_P2
2023/04/09 00:01:38;;;;;;;;;;;;;;;14.51;nan;102758.66;5017418;28;19968;-83
2023/04/09 00:04:03;;;;;;;;;;;;;;;14.49;nan;102751.84;5025251;28;19920;-83
2023/04/09 00:06:29;;;;;;;;;;;;;;;14.51;nan;102755.13;5023739;28;19928;-83
2023/04/09 00:08:55;;;;;;;;;;;;;;;14.53;nan;102755.72;5018953;28;19982;-84
2023/04/09 00:11:21;;;;;;;;;;;;;;;14.53;nan;102761.13;5020187;28;19961;-83
2023/04/09 00:13:46;;;;;;;;;;;;;;;14.51;nan;102755.13;5021786;28;19917;-83
2023/04/09 00:16:11;;;;;;;;;;;;;;;14.50;nan;102756.16;5021771;28;19987;-83
2023/04/09 00:18:36;;;;;;;;;;;;;;;14.48;nan;102756.41;5023341;28;19935;-83
2023/04/09 00:21:02;;;;;;;;;;;;;;;14.48;nan;102755.59;5020436;28;19925;-83
2023/04/09 00:23:27;;;;;;;;;;;;;;;14.49;nan;102751.84;5001354;28;19967;-83
2023/04/09 00:25:52;;;;;;;;;;;;;;;14.51;nan;102752.44;5021813;28;19924;-83
2023/04/09 00:28:18;;;;;;;;;;;;;;;14.51;nan;102760.53;5017370;28;19924;-83
2023/04/09 00:30:43;;;;;;;;;;;;;;;14.49;nan;102749.97;5022138;28;19921;-83
2023/04/09 00:33:08;;;;;;;;;;;;;;;14.49;nan;102757.22;5021024;28;20000;-83
2023/04/09 00:35:34;;;;;;;;;;;;;;;14.49;nan;102751.84;5021206;28;20003;-83
2023/04/09 00:37:59;;;;;;;;;;;;;;;14.49;nan;102754.53;5022749;28;19952;-83
2023/04/09 00:40:25;;;;;;;;;;;;;;;14.47;nan;102759.31;5006546;28;19917;-83
2023/04/09 00:42:51;;;;;;;;;;;;;;;14.42;nan;102745.66;5019772;28;19917;-83
2023/04/09 00:45:16;;;;;;;;;;;;;;;14.41;nan;102752.13;5017729;28;19916;-83
2023/04/09 00:47:44;;;;;;;;;;;;;;;14.40;nan;102754.00;5019283;28;20330;-83
2023/04/09 00:50:09;;;;;;;;;;;;;;;14.40;nan;102753.16;5021113;28;19944;-83
2023/04/09 00:52:35;;;;;;;;;;;;;;;14.41;nan;102754.81;5022599;28;20429;-83
2023/04/09 00:55:02;;;;;;;;;;;;;;;14.41;nan;102752.94;5019042;28;19920;-83
2023/04/09 00:57:31;;;;;;;;;;;;;;;14.41;nan;102755.63;5020555;28;20439;-83
2023/04/09 00:59:56;;;;;;;;;;;;;;;14.40;nan;102753.16;5022496;28;19924;-83
2023/04/09 01:02:21;;;;;;;;;;;;;;;14.39;nan;102746.94;5025162;28;20275;-83
2023/04/09 01:04:47;;;;;;;;;;;;;;;14.38;nan;102752.56;5010298;28;20000;-83
2023/04/09 01:07:31;;;;;;;;;;;;;;;14.35;nan;102751.13;5019031;28;20386;-83
2023/04/09 01:10:08;;;;;;;;;;;;;;;14.30;nan;102756.38;5020648;28;19929;-83
2023/04/09 01:12:36;;;;;;;;;;;;;;;14.29;nan;102748.50;5020466;28;20297;-84
2023/04/09 01:15:01;;;;;;;;;;;;;;;14.29;nan;102748.50;5020606;28;20368;-83
2023/04/09 01:17:27;;;;;;;;;;;;;;;14.31;nan;102746.41;5020278;28;19996;-83
2023/04/09 01:20:04;;;;;;;;;;;;;;;14.29;nan;102756.59;5019969;28;19995;-83
2023/04/09 01:22:49;;;;;;;;;;;;;;;14.25;nan;102755.41;5024125;28;19917;-83
2023/04/09 01:25:28;;;;;;;;;;;;;;;14.20;nan;102748.81;5022039;28;19917;-83
2023/04/09 01:28:02;;;;;;;;;;;;;;;14.22;nan;102753.97;5024540;28;19921;-83
2023/04/09 01:30:28;;;;;;;;;;;;;;;14.23;nan;102754.81;5023987;28;19960;-84
2023/04/09 01:32:54;;;;;;;;;;;;;;;14.23;nan;102749.41;5022536;28;20433;-83
2023/04/09 01:35:20;;;;;;;;;;;;;;;14.24;nan;102753.75;5027639;28;20480;-83
2023/04/09 01:37:46;;;;;;;;;;;;;;;14.23;nan;102754.81;5024917;28;19932;-83
2023/04/09 01:40:11;;;;;;;;;;;;;;;14.17;nan;102751.94;5018319;28;19917;-83
2023/04/09 01:42:37;;;;;;;;;;;;;;;14.14;nan;102760.47;5016294;28;19917;-84
2023/04/09 01:45:04;;;;;;;;;;;;;;;14.09;nan;102752.22;5020073;28;20276;-84
2023/04/09 01:47:29;;;;;;;;;;;;;;;14.06;nan;102752.69;5017942;28;20591;-83
2023/04/09 01:49:54;;;;;;;;;;;;;;;14.05;nan;102748.34;5018233;28;19929;-83
2023/04/09 01:52:20;;;;;;;;;;;;;;;14.07;nan;102751.63;5022365;28;19925;-83
2023/04/09 01:54:45;;;;;;;;;;;;;;;14.08;nan;102752.47;5025200;28;19921;-84
2023/04/09 01:57:11;;;;;;;;;;;;;;;14.09;nan;102757.63;5026959;28;20016;-83
2023/04/09 01:59:36;;;;;;;;;;;;;;;14.08;nan;102755.97;5027951;28;20296;-83
2023/04/09 02:02:19;;;;;;;;;;;;;;;14.06;nan;102754.56;5023978;28;20372;-83
2023/04/09 02:04:48;;;;;;;;;;;;;;;14.01;nan;102757.94;5026487;28;20278;-84
2023/04/09 02:07:23;;;;;;;;;;;;;;;13.97;nan;102748.63;5024606;28;19924;-83
2023/04/09 02:09:48;;;;;;;;;;;;;;;13.96;nan;102756.91;5025083;28;20203;-84
2023/04/09 02:12:16;;;;;;;;;;;;;;;13.93;nan;102755.50;5025789;28;20022;-83
2023/04/09 02:14:43;;;;;;;;;;;;;;;13.93;nan;102752.81;5020943;28;20310;-83
2023/04/09 02:17:08;;;;;;;;;;;;;;;13.94;nan;102759.84;5026177;28;19924;-84
2023/04/09 02:19:38;;;;;;;;;;;;;;;13.96;nan;102757.75;5026548;28;19928;-84
2023/04/09 02:22:03;;;;;;;;;;;;;;;13.97;nan;102756.69;5027152;28;19921;-83
2023/04/09 02:24:29;;;;;;;;;;;;;;;13.97;nan;102754.00;5027680;28;19924;-83
2023/04/09 02:26:54;;;;;;;;;;;;;;;13.99;nan;102757.28;5023094;28;20877;-83
2023/04/09 02:29:20;;;;;;;;;;;;;;;14.00;nan;102761.63;5023937;28;19925;-84
2023/04/09 02:31:45;;;;;;;;;;;;;;;13.97;nan;102762.09;5021660;28;19921;-83
2023/04/09 02:34:10;;;;;;;;;;;;;;;13.93;nan;102757.38;5022501;28;19939;-84
2023/04/09 02:36:36;;;;;;;;;;;;;;;13.91;nan;102761.13;5021876;28;19921;-83
2023/04/09 02:39:01;;;;;;;;;;;;;;;13.86;nan;102757.44;5025356;28;19925;-85
2023/04/09 02:41:26;;;;;;;;;;;;;;;13.83;nan;102755.19;5025756;28;20004;-86
2023/04/09 02:43:52;;;;;;;;;;;;;;;13.73;nan;102762.94;5027234;28;20012;-85
2023/04/09 02:46:17;;;;;;;;;;;;;;;13.64;nan;102761.53;5021874;28;19921;-85
2023/04/09 02:48:42;;;;;;;;;;;;;;;13.58;nan;102756.00;5024644;28;20170;-85
2023/04/09 02:51:08;;;;;;;;;;;;;;;13.59;nan;102757.66;5023890;28;20371;-86
2023/04/09 02:53:33;;;;;;;;;;;;;;;13.57;nan;102756.22;5010547;28;19956;-85
2023/04/09 02:55:58;;;;;;;;;;;;;;;13.54;nan;102746.72;5027371;28;19921;-85
2023/04/09 02:58:26;;;;;;;;;;;;;;;13.52;nan;102756.06;5020713;28;20395;-85
2023/04/09 03:00:51;;;;;;;;;;;;;;;13.50;nan;102750.06;5007590;28;20016;-86
2023/04/09 03:03:16;;;;;;;;;;;;;;;13.52;nan;102750.69;5027013;28;19999;-85
2023/04/09 03:05:43;;;;;;;;;;;;;;;13.47;nan;102751.34;5026698;28;19997;-85
2023/04/09 03:08:08;;;;;;;;;;;;;;;13.45;nan;102749.88;5022864;28;20385;-85
2023/04/09 03:10:33;;;;;;;;;;;;;;;13.40;nan;102749.72;5019624;28;19967;-86
2023/04/09 03:12:59;;;;;;;;;;;;;;;13.38;nan;102747.25;5025711;28;19970;-85
2023/04/09 03:15:24;;;;;;;;;;;;;;;13.39;nan;102746.19;5027807;28;19917;-86
2023/04/09 03:17:50;;;;;;;;;;;;;;;13.39;nan;102748.06;5023482;28;19925;-85
2023/04/09 03:20:15;;;;;;;;;;;;;;;13.39;nan;102751.59;5024407;28;20386;-85
2023/04/09 03:22:40;;;;;;;;;;;;;;;13.40;nan;102755.94;5025313;28;20342;-86
2023/04/09 03:25:09;;;;;;;;;;;;;;;13.39;nan;102748.88;5024482;28;19932;-86
2023/04/09 03:27:35;;;;;;;;;;;;;;;13.35;nan;102750.38;5023636;28;19964;-86
2023/04/09 03:30:00;;;;;;;;;;;;;;;13.34;nan;102748.72;5023500;28;19932;-87
2023/04/09 03:32:25;;;;;;;;;;;;;;;13.32;nan;102747.31;5023745;28;19948;-85
2023/04/09 03:34:50;;;;;;;;;;;;;;;13.29;nan;102749.38;5023805;28;19964;-85
2023/04/09 03:37:16;;;;;;;;;;;;;;;13.33;nan;102746.25;5025611;28;19959;-85
2023/04/09 03:39:41;;;;;;;;;;;;;;;13.33;nan;102741.69;5024404;28;19917;-86
2023/04/09 03:42:06;;;;;;;;;;;;;;;13.33;nan;102744.38;5021268;28;19924;-86
2023/04/09 03:44:32;;;;;;;;;;;;;;;13.36;nan;102752.03;5025422;28;19921;-85
2023/04/09 03:46:57;;;;;;;;;;;;;;;13.39;nan;102740.81;5025083;28;20378;-86
2023/04/09 03:49:22;;;;;;;;;;;;;;;13.34;nan;102739.81;5024150;28;19975;-85
2023/04/09 03:51:48;;;;;;;;;;;;;;;13.27;nan;102745.25;5024290;28;20391;-85
2023/04/09 03:54:13;;;;;;;;;;;;;;;13.25;nan;102742.78;5022268;28;20490;-85
2023/04/09 03:56:38;;;;;;;;;;;;;;;13.22;nan;102743.22;5022479;28;21306;-85
2023/04/09 03:59:04;;;;;;;;;;;;;;;13.19;nan;102743.66;5025651;28;19995;-86
2023/04/09 04:01:29;;;;;;;;;;;;;;;13.16;nan;102735.16;5026304;28;19917;-85
2023/04/09 04:03:54;;;;;;;;;;;;;;;13.13;nan;102747.19;5020911;28;19956;-85
2023/04/09 04:06:20;;;;;;;;;;;;;;;13.12;nan;102739.31;5024619;28;19921;-86
2023/04/09 04:08:45;;;;;;;;;;;;;;;13.12;nan;102750.91;5022649;28;20354;-85
2023/04/09 04:11:11;;;;;;;;;;;;;;;13.13;nan;102746.34;5025620;28;20004;-85
2023/04/09 04:13:36;;;;;;;;;;;;;;;13.15;nan;102755.03;5025997;28;20063;-86
2023/04/09 04:16:05;;;;;;;;;;;;;;;13.15;nan;102750.47;5022033;28;19925;-86
2023/04/09 04:18:30;;;;;;;;;;;;;;;13.17;nan;102752.94;5024421;28;20000;-86
2023/04/09 04:20:56;;;;;;;;;;;;;;;13.18;nan;102749.25;5028393;28;20011;-85
2023/04/09 04:23:21;;;;;;;;;;;;;;;13.18;nan;102754.63;5024113;28;19924;-86
2023/04/09 04:25:46;;;;;;;;;;;;;;;13.15;nan;102755.03;5006368;28;19924;-85
2023/04/09 04:28:12;;;;;;;;;;;;;;;13.14;nan;102764.97;5019983;28;19929;-85
2023/04/09 04:30:39;;;;;;;;;;;;;;;13.15;nan;102755.03;5016438;28;19928;-85
2023/04/09 04:33:05;;;;;;;;;;;;;;;13.15;nan;102755.88;5020565;28;19967;-86
2023/04/09 04:35:30;;;;;;;;;;;;;;;13.13;nan;102749.88;5017163;28;19961;-85
2023/04/09 04:37:55;;;;;;;;;;;;;;;13.13;nan;102757.13;4998880;28;20287;-86
2023/04/09 04:40:21;;;;;;;;;;;;;;;13.06;nan;102751.75;5016548;28;20326;-85
2023/04/09 04:42:46;;;;;;;;;;;;;;;13.02;nan;102762.13;5019749;28;19924;-86
2023/04/09 04:45:12;;;;;;;;;;;;;;;12.99;nan;102764.44;5020475;28;19921;-85
2023/04/09 04:47:37;;;;;;;;;;;;;;;12.96;nan;102759.50;5017470;28;19928;-86
2023/04/09 04:50:02;;;;;;;;;;;;;;;12.96;nan;102749.56;5018093;28;20305;-87
2023/04/09 04:52:28;;;;;;;;;;;;;;;12.92;nan;102753.69;5005882;28;19925;-85
2023/04/09 04:54:53;;;;;;;;;;;;;;;12.91;nan;102754.72;5019727;28;19964;-85
2023/04/09 04:57:18;;;;;;;;;;;;;;;12.89;nan;102751.44;5012598;28;20020;-86
2023/04/09 04:59:44;;;;;;;;;;;;;;;12.90;nan;102752.25;5001576;28;19979;-85
2023/04/09 05:02:09;;;;;;;;;;;;;;;12.91;nan;102754.72;5024662;28;19917;-86
2023/04/09 05:04:34;;;;;;;;;;;;;;;12.93;nan;102758.06;5023724;28;19917;-85
2023/04/09 05:07:00;;;;;;;;;;;;;;;12.94;nan;102754.31;5022252;28;19929;-85
2023/04/09 05:09:25;;;;;;;;;;;;;;;12.95;nan;102757.84;5022323;28;20898;-85
2023/04/09 05:11:51;;;;;;;;;;;;;;;12.97;nan;102755.75;5021415;28;19921;-85
2023/04/09 05:14:16;;;;;;;;;;;;;;;13.01;nan;102752.41;5025826;28;19992;-86
2023/04/09 05:16:41;;;;;;;;;;;;;;;13.03;nan;102760.28;5023835;28;19928;-85
2023/04/09 05:19:07;;;;;;;;;;;;;;;13.02;nan;102767.50;5006023;28;19917;-86
2023/04/09 05:21:32;;;;;;;;;;;;;;;13.03;nan;102765.66;5019294;28;20056;-85
2023/04/09 05:23:58;;;;;;;;;;;;;;;13.08;nan;102768.50;5021433;28;19923;-85
2023/04/09 05:26:23;;;;;;;;;;;;;;;13.14;nan;102775.75;5022535;28;20295;-85
2023/04/09 05:28:48;;;;;;;;;;;;;;;13.19;nan;102777.81;5021703;28;20291;-85
2023/04/09 05:31:14;;;;;;;;;;;;;;;13.19;nan;102775.13;5019458;28;19921;-85
2023/04/09 05:33:40;;;;;;;;;;;;;;;13.18;nan;102777.00;5023523;28;19990;-85
2023/04/09 05:36:05;;;;;;;;;;;;;;;13.17;nan;102775.31;5022753;28;19951;-85
2023/04/09 05:38:30;;;;;;;;;;;;;;;13.17;nan;102780.69;5020328;28;19957;-86
2023/04/09 05:40:56;;;;;;;;;;;;;;;13.13;nan;102774.09;5019539;28;19979;-87
2023/04/09 05:43:22;;;;;;;;;;;;;;;13.10;nan;102776.38;5019925;28;19925;-85
2023/04/09 05:45:47;;;;;;;;;;;;;;;13.07;nan;102774.13;5019370;28;19917;-85
2023/04/09 05:48:12;;;;;;;;;;;;;;;12.99;nan;102784.09;5023016;28;19924;-85
2023/04/09 05:50:38;;;;;;;;;;;;;;;12.95;nan;102780.19;5024654;28;19929;-86
2023/04/09 05:53:03;;;;;;;;;;;;;;;12.94;nan;102781.22;5020773;28;19925;-85
2023/04/09 05:55:30;;;;;;;;;;;;;;;12.92;nan;102782.47;5019492;28;19963;-85
2023/04/09 05:57:56;;;;;;;;;;;;;;;12.95;nan;102776.69;5024818;28;20362;-86
2023/04/09 06:00:21;;;;;;;;;;;;;;;12.97;nan;102778.09;5024238;28;19931;-86
2023/04/09 06:02:46;;;;;;;;;;;;;;;12.97;nan;102780.78;5024799;28;19921;-86
2023/04/09 06:05:12;;;;;;;;;;;;;;;12.93;nan;102778.75;5022995;28;20028;-85
2023/04/09 06:07:37;;;;;;;;;;;;;;;12.95;nan;102784.75;5020057;28;20001;-86
2023/04/09 06:10:03;;;;;;;;;;;;;;;12.98;nan;102784.31;5024081;28;20011;-87
2023/04/09 06:12:28;;;;;;;;;;;;;;;13.01;nan;102784.69;5022065;28;20363;-86
2023/04/09 06:14:53;;;;;;;;;;;;;;;13.06;nan;102783.22;5020236;28;19918;-87
2023/04/09 06:17:19;;;;;;;;;;;;;;;13.10;nan;102792.50;5024938;28;20031;-85
2023/04/09 06:19:44;;;;;;;;;;;;;;;13.17;nan;102787.94;5025478;28;19917;-85
2023/04/09 06:22:10;;;;;;;;;;;;;;;13.20;nan;102787.53;5008383;28;19953;-86
2023/04/09 06:24:35;;;;;;;;;;;;;;;13.25;nan;102785.00;5023368;28;19931;-86
2023/04/09 06:27:00;;;;;;;;;;;;;;;13.30;nan;102795.97;5027487;28;19925;-85
2023/04/09 06:29:26;;;;;;;;;;;;;;;13.34;nan;102797.19;5020930;28;19917;-86
2023/04/09 06:31:51;;;;;;;;;;;;;;;13.39;nan;102802.75;5026557;28;19925;-86
2023/04/09 06:34:19;;;;;;;;;;;;;;;13.42;nan;102804.16;5025414;28;21927;-86
2023/04/09 06:36:44;;;;;;;;;;;;;;;13.44;nan;102807.47;5020824;28;20073;-86
2023/04/09 06:39:10;;;;;;;;;;;;;;;13.45;nan;102804.56;5022297;28;19936;-86
2023/04/09 06:41:35;;;;;;;;;;;;;;;13.48;nan;102811.41;5022854;28;21338;-85
2023/04/09 06:44:01;;;;;;;;;;;;;;;13.49;nan;102819.25;5009697;28;19920;-86
2023/04/09 06:46:26;;;;;;;;;;;;;;;13.50;nan;102807.44;5020714;28;19964;-87
2023/04/09 06:48:52;;;;;;;;;;;;;;;13.53;nan;102803.50;5018355;28;20004;-85
2023/04/09 06:51:17;;;;;;;;;;;;;;;13.53;nan;102801.63;5018580;28;20012;-86
2023/04/09 06:53:43;;;;;;;;;;;;;;;13.58;nan;102796.41;5023211;28;19932;-86
2023/04/09 06:56:08;;;;;;;;;;;;;;;13.66;nan;102794.50;5022991;28;19920;-86
2023/04/09 06:58:34;;;;;;;;;;;;;;;13.69;nan;102799.44;5021340;28;19956;-86
2023/04/09 07:00:59;;;;;;;;;;;;;;;13.71;nan;102786.56;5019074;28;20406;-85
2023/04/09 07:03:26;;;;;;;;;;;;;;;13.73;nan;102792.56;5020069;28;19922;-85
2023/04/09 07:05:52;;;;;;;;;;;;;;;13.75;nan;102793.16;5000385;28;20433;-86
2023/04/09 07:08:18;;;;;;;;;;;;;;;13.77;nan;102796.47;5003715;28;19921;-86
2023/04/09 07:10:43;;;;;;;;;;;;;;;13.78;nan;102790.03;5018948;28;20378;-86
2023/04/09 07:13:08;;;;;;;;;;;;;;;13.79;nan;102787.13;5017890;28;20284;-87
2023/04/09 07:15:34;;;;;;;;;;;;;;;13.82;nan;102797.47;5022703;28;19960;-86
2023/04/09 07:17:59;;;;;;;;;;;;;;;13.84;nan;102794.56;5021836;28;20304;-86
2023/04/09 07:20:25;;;;;;;;;;;;;;;13.85;nan;102794.34;5016780;28;20011;-86
2023/04/09 07:22:50;;;;;;;;;;;;;;;13.88;nan;102796.59;5000696;28;19926;-85
2023/04/09 07:25:15;;;;;;;;;;;;;;;13.87;nan;102800.31;5014523;28;19996;-86
2023/04/09 07:27:44;;;;;;;;;;;;;;;13.82;nan;102788.53;5018899;28;19925;-86
2023/04/09 07:30:09;;;;;;;;;;;;;;;13.83;nan;102801.00;5020461;28;20119;-85
2023/04/09 07:32:35;;;;;;;;;;;;;;;13.86;nan;102808.63;5021149;28;19921;-85
2023/04/09 07:35:02;;;;;;;;;;;;;;;13.93;nan;102806.69;5019136;28;19994;-86
2023/04/09 07:37:27;;;;;;;;;;;;;;;13.95;nan;102807.31;5018607;28;20292;-86
2023/04/09 07:39:53;;;;;;;;;;;;;;;13.96;nan;102806.25;5003233;28;19928;-85
2023/04/09 07:42:18;;;;;;;;;;;;;;;14.02;nan;102805.41;5019078;28;19925;-85
2023/04/09 07:44:43;;;;;;;;;;;;;;;14.09;nan;102808.84;5017677;28;20395;-86
2023/04/09 07:47:10;;;;;;;;;;;;;;;14.11;nan;102806.75;5014055;28;20337;-85
2023/04/09 07:49:36;;;;;;;;;;;;;;;14.16;nan;102806.91;5019086;28;20011;-85
2023/04/09 07:52:03;;;;;;;;;;;;;;;14.24;nan;102802.28;5017929;28;19921;-86
2023/04/09 07:54:30;;;;;;;;;;;;;;;14.27;nan;102802.66;5012901;28;19943;-85
2023/04/09 07:56:56;;;;;;;;;;;;;;;14.31;nan;102803.84;5018384;28;19921;-85
2023/04/09 07:59:22;;;;;;;;;;;;;;;14.35;nan;102804.22;5021569;28;19960;-85
2023/04/09 08:01:47;;;;;;;;;;;;;;;14.41;nan;102814.13;5017649;28;20378;-86
2023/04/09 08:04:13;;;;;;;;;;;;;;;14.35;nan;102809.63;5021878;28;19921;-85
2023/04/09 08:06:38;;;;;;;;;;;;;;;14.38;nan;102810.03;5013399;28;19925;-85
2023/04/09 08:09:03;;;;;;;;;;;;;;;14.34;nan;102811.50;5021690;28;20161;-85
2023/04/09 08:11:29;;;;;;;;;;;;;;;14.31;nan;102814.63;5014409;28;19929;-85
2023/04/09 08:13:56;;;;;;;;;;;;;;;14.30;nan;102812.16;5014012;28;19920;-87
2023/04/09 08:16:25;;;;;;;;;;;;;;;14.32;nan;102816.28;5015895;28;20028;-86
2023/04/09 08:19:20;;;;;;;;;;;;;;;14.31;nan;102820.03;5018228;28;19928;-86
2023/04/09 08:25:35;;;;;;;;;;;;;;;14.28;nan;102819.66;5028920;28;19967;-87
2023/04/09 08:28:53;;;;;;;;;;;;;;;;;;;;;
2023/04/09 08:31:29;;;;;;;;;;;;;;;14.35;nan;102809.63;4964749;28;19937;-85
2023/04/09 08:33:56;;;;;;;;;;;;;;;14.37;nan;102812.94;5020024;28;20402;-86
2023/04/09 08:39:24;;;;;;;;;;;;;;;14.47;nan;102818.66;5028836;22;20013;-81
2023/04/09 08:41:51;;;;;;;;;;;;;;;14.58;nan;102814.41;5015158;28;19937;-82
2023/04/09 08:44:16;;;;;;;;;;;;;;;14.65;nan;102813.28;5012202;28;19917;-82
2023/04/09 08:46:42;;;;;;;;;;;;;;;14.69;nan;102817.16;5012244;28;19918;-82
2023/04/09 08:49:08;;;;;;;;;;;;;;;14.69;nan;102811.78;5003512;28;19928;-82
2023/04/09 08:51:33;;;;;;;;;;;;;;;14.70;nan;102818.81;4999685;28;20099;-82
2023/04/09 08:53:59;;;;;;;;;;;;;;;14.72;nan;102813.19;4998162;28;20016;-82
2023/04/09 08:56:25;;;;;;;;;;;;;;;14.74;nan;102809.25;5002369;28;19932;-82
2023/04/09 08:58:51;;;;;;;;;;;;;;;14.79;nan;102809.38;4996234;28;19927;-82
2023/04/09 09:01:20;;;;;;;;;;;;;;;14.84;nan;102811.38;4997546;28;19965;-82
2023/04/09 09:03:51;;;;;;;;;;;;;;;14.95;nan;102815.22;5001124;28;20338;-82
2023/04/09 09:06:21;;;;;;;;;;;;;;;15.00;nan;102810.78;4983907;28;19925;-82
2023/04/09 09:08:58;;;;;;;;;;;;;;;15.05;nan;102810.09;5001139;28;19928;-82
2023/04/09 09:11:26;;;;;;;;;;;;;;;15.08;nan;102806.94;5001247;28;19926;-82
2023/04/09 09:13:59;;;;;;;;;;;;;;;15.07;nan;102814.19;5004597;28;19929;-82
2023/04/09 09:16:24;;;;;;;;;;;;;;;15.09;nan;102814.00;5008060;28;19963;-81
2023/04/09 09:18:50;;;;;;;;;;;;;;;15.15;nan;102821.19;5000716;28;20403;-81
2023/04/09 09:21:16;;;;;;;;;;;;;;;15.22;nan;102819.19;5002341;28;20362;-82
2023/04/09 09:23:42;;;;;;;;;;;;;;;15.26;nan;102812.31;5002751;28;20310;-81
2023/04/09 09:26:18;;;;;;;;;;;;;;;15.33;nan;102818.44;5004529;28;19960;-81
2023/04/09 09:28:44;;;;;;;;;;;;;;;15.39;nan;102812.09;5002047;28;19975;-82
2023/04/09 09:31:10;;;;;;;;;;;;;;;15.47;nan;102813.66;5001858;28;19925;-81
2023/04/09 09:33:36;;;;;;;;;;;;;;;15.54;nan;102808.97;4996821;28;20072;-81
2023/04/09 09:36:02;;;;;;;;;;;;;;;15.53;nan;102806.50;4999050;28;19933;-82
2023/04/09 09:38:28;;;;;;;;;;;;;;;15.55;nan;102810.63;5002824;28;19922;-81
2023/04/09 09:40:53;;;;;;;;;;;;;;;15.61;nan;102812.44;5006115;28;19932;-82
2023/04/09 09:43:19;;;;;;;;;;;;;;;15.67;nan;102814.22;5006789;28;20422;-81
2023/04/09 09:45:45;;;;;;;;;;;;;;;15.72;nan;102810.81;5009267;28;19929;-81
2023/04/09 09:48:11;;;;;;;;;;;;;;;15.77;nan;102813.63;5006136;28;19971;-81
2023/04/09 09:50:38;;;;;;;;;;;;;;;15.87;nan;102815.78;5006954;28;19921;-82
2023/04/09 09:53:07;;;;;;;;;;;;;;;15.95;nan;102815.41;5011454;28;19926;-82
2023/04/09 09:55:33;;;;;;;;;;;;;;;15.97;nan;102810.59;5009447;28;19929;-82
2023/04/09 09:58:05;;;;;;;;;;;;;;;15.99;nan;102814.75;5006867;28;19926;-82
2023/04/09 10:00:31;;;;;;;;;;;;;;;16.02;nan;102806.16;5007910;28;19921;-82
2023/04/09 10:03:02;;;;;;;;;;;;;;;16.04;nan;102818.63;5009931;28;19922;-81
2023/04/09 10:05:28;;;;;;;;;;;;;;;16.06;nan;102806.50;5010881;28;20078;-82
2023/04/09 10:07:56;;;;;;;;;;;;;;;16.12;nan;102807.44;5008763;28;19921;-82
2023/04/09 10:10:22;;;;;;;;;;;;;;;16.15;nan;102809.66;5006663;28;20024;-82
2023/04/09 10:12:47;;;;;;;;;;;;;;;16.19;nan;102806.28;5006635;28;19927;-82
2023/04/09 10:15:13;;;;;;;;;;;;;;;16.22;nan;102808.50;5008612;28;20226;-82
2023/04/09 10:17:38;;;;;;;;;;;;;;;16.27;nan;102800.50;5008788;28;19917;-81
2023/04/09 10:20:11;;;;;;;;;;;;;;;16.31;nan;102800.84;5005392;28;20282;-82
2023/04/09 10:22:37;;;;;;;;;;;;;;;16.33;nan;102790.59;4992732;28;19972;-82
2023/04/09 10:25:05;;;;;;;;;;;;;;;16.32;nan;102787.09;5009518;28;20290;-82
2023/04/09 10:27:31;;;;;;;;;;;;;;;16.37;nan;102796.41;5006451;28;19965;-82
2023/04/09 10:29:58;;;;;;;;;;;;;;;16.42;nan;102789.19;5006657;28;20007;-82
2023/04/09 10:32:26;;;;;;;;;;;;;;;16.43;nan;102792.72;4990067;28;20445;-82
2023/04/09 10:34:54;;;;;;;;;;;;;;;16.50;nan;102794.22;5009052;28;20378;-82
2023/04/09 10:37:21;;;;;;;;;;;;;;;16.56;nan;102790.59;5006310;28;20295;-82
2023/04/09 10:39:47;;;;;;;;;;;;;;;16.65;nan;102790.22;5005866;28;20345;-82
2023/04/09 10:42:17;;;;;;;;;;;;;;;16.69;nan;102791.41;5007686;28;20536;-81
2023/04/09 10:44:42;;;;;;;;;;;;;;;16.67;nan;102793.53;5008828;28;19932;-81
2023/04/09 10:47:08;;;;;;;;;;;;;;;16.71;nan;102789.31;5006438;28;19922;-82
2023/04/09 10:49:35;;;;;;;;;;;;;;;16.77;nan;102788.34;5006247;28;20314;-82
2023/04/09 10:52:01;;;;;;;;;;;;;;;16.74;nan;102791.53;5008522;28;20406;-82
2023/04/09 10:54:32;;;;;;;;;;;;;;;16.72;nan;102780.94;5010691;28;19928;-81
2023/04/09 10:57:07;;;;;;;;;;;;;;;16.74;nan;102780.69;5007312;28;20040;-82
2023/04/09 10:59:37;;;;;;;;;;;;;;;16.78;nan;102781.88;5002924;28;19921;-82
2023/04/09 11:02:06;;;;;;;;;;;;;;;16.83;nan;102780.06;5006668;28;19926;-82
2023/04/09 11:04:37;;;;;;;;;;;;;;;16.81;nan;102786.78;5009603;28;19921;-82
2023/04/09 11:07:04;;;;;;;;;;;;;;;16.86;nan;102784.19;5005573;28;20008;-82
2023/04/09 11:09:33;;;;;;;;;;;;;;;16.93;nan;102784.88;5006166;28;20047;-81
2023/04/09 11:11:58;;;;;;;;;;;;;;;16.99;nan;102775.78;5006407;28;19925;-82
2023/04/09 11:14:24;;;;;;;;;;;;;;;16.97;nan;102775.19;5007300;28;19928;-82
2023/04/09 11:16:50;;;;;;;;;;;;;;;16.96;nan;102775.44;4984072;28;19921;-82
2023/04/09 11:19:15;;;;;;;;;;;;;;;16.95;nan;102785.44;5003587;28;19948;-82
2023/04/09 11:21:45;;;;;;;;;;;;;;;16.98;nan;102771.44;5004102;28;19972;-82
2023/04/09 11:24:13;;;;;;;;;;;;;;;17.04;nan;102777.75;5008713;28;19944;-82
2023/04/09 11:26:39;;;;;;;;;;;;;;;17.06;nan;102787.31;5006145;28;19928;-82
2023/04/09 11:29:08;;;;;;;;;;;;;;;17.11;nan;102776.56;5005634;28;19922;-81
2023/04/09 11:31:33;;;;;;;;;;;;;;;17.15;nan;102785.00;5001310;28;19926;-81
2023/04/09 11:33:59;;;;;;;;;;;;;;;17.18;nan;102781.81;5009365;28;19994;-82
2023/04/09 11:36:26;;;;;;;;;;;;;;;17.20;nan;102774.25;4987811;28;20180;-82
2023/04/09 11:38:53;;;;;;;;;;;;;;;17.25;nan;102776.25;5004745;28;19928;-82
2023/04/09 11:41:31;;;;;;;;;;;;;;;17.33;nan;102775.84;5004088;28;19921;-82
2023/04/09 11:43:56;;;;;;;;;;;;;;;17.43;nan;102771.44;5007621;28;20011;-82
2023/04/09 11:46:24;;;;;;;;;;;;;;;17.47;nan;102779.91;5008084;28;19929;-82
2023/04/09 11:48:51;;;;;;;;;;;;;;;17.48;nan;102773.41;4993086;28;19933;-82
2023/04/09 11:51:16;;;;;;;;;;;;;;;17.52;nan;102766.44;4993221;28;19933;-82
2023/04/09 11:53:42;;;;;;;;;;;;;;;17.50;nan;102760.44;4998119;28;19984;-82
2023/04/09 11:56:07;;;;;;;;;;;;;;;17.60;nan;102763.34;4999430;28;19968;-82
2023/04/09 11:58:33;;;;;;;;;;;;;;;17.73;nan;102763.00;5005563;28;20000;-82
2023/04/09 12:00:58;;;;;;;;;;;;;;;17.81;nan;102770.75;5005992;28;19944;-82
2023/04/09 12:03:28;;;;;;;;;;;;;;;17.90;nan;102767.59;5003704;28;19996;-82
2023/04/09 12:05:53;;;;;;;;;;;;;;;17.96;nan;102772.88;5004202;28;19956;-82
2023/04/09 12:08:22;;;;;;;;;;;;;;;18.04;nan;102772.44;5004415;28;20011;-82
2023/04/09 12:10:47;;;;;;;;;;;;;;;18.11;nan;102764.94;5000112;28;20363;-81
2023/04/09 12:13:13;;;;;;;;;;;;;;;18.22;nan;102771.34;5003708;28;19924;-82
2023/04/09 12:15:42;;;;;;;;;;;;;;;18.31;nan;102764.44;4999177;28;20413;-82
2023/04/09 12:18:08;;;;;;;;;;;;;;;18.41;nan;102771.88;5001093;28;20046;-82
2023/04/09 12:20:35;;;;;;;;;;;;;;;18.47;nan;102770.03;5003975;28;19921;-82
2023/04/09 12:23:02;;;;;;;;;;;;;;;18.47;nan;102770.84;5003006;28;19922;-83
2023/04/09 12:25:27;;;;;;;;;;;;;;;18.54;nan;102767.97;5003548;28;20055;-82
2023/04/09 12:27:54;;;;;;;;;;;;;;;18.58;nan;102766.38;5004647;28;20063;-82
2023/04/09 12:30:20;;;;;;;;;;;;;;;18.65;nan;102767.03;4999380;28;20267;-82
2023/04/09 12:32:45;;;;;;;;;;;;;;;18.74;nan;102778.28;5004757;28;20321;-82
2023/04/09 12:35:11;;;;;;;;;;;;;;;18.78;nan;102763.94;5007831;28;20014;-82
2023/04/09 12:37:36;;;;;;;;;;;;;;;18.85;nan;102772.72;4981612;28;20287;-82
2023/04/09 12:40:02;;;;;;;;;;;;;;;18.93;nan;102768.72;5003679;28;20302;-82
2023/04/09 12:42:28;;;;;;;;;;;;;;;18.93;nan;102766.00;5005973;28;20399;-82
2023/04/09 12:44:53;;;;;;;;;;;;;;;18.90;nan;102767.34;5002022;28;19922;-82
2023/04/09 12:47:18;;;;;;;;;;;;;;;18.91;nan;102768.16;5004193;28;19996;-82
2023/04/09 12:49:45;;;;;;;;;;;;;;;18.98;nan;102764.16;5003882;28;20450;-82
2023/04/09 12:52:13;;;;;;;;;;;;;;;19.01;nan;102768.25;5004157;28;20042;-82
2023/04/09 12:54:39;;;;;;;;;;;;;;;19.13;nan;102757.25;5003061;28;19921;-82
2023/04/09 12:57:04;;;;;;;;;;;;;;;19.21;nan;102749.47;5002125;28;19917;-82
2023/04/09 12:59:30;;;;;;;;;;;;;;;19.28;nan;102751.97;5004832;28;19918;-82
2023/04/09 13:01:55;;;;;;;;;;;;;;;19.36;nan;102746.03;5002434;28;20002;-82